createdAt,value
2023-03-13T00:00:55.381Z,60.80
2023-03-13T00:03:24.159Z,60.16
2023-03-13T00:05:56.934Z,60.22
2023-03-13T00:08:24.827Z,60.19
2023-03-13T00:10:53.186Z,60.39
2023-03-13T00:13:20.734Z,60.41
2023-03-13T00:15:48.413Z,60.23
2023-03-13T00:18:16.032Z,60.40
2023-03-13T00:20:43.696Z,59.84
2023-03-13T00:23:13.237Z,60.01
2023-03-13T00:25:40.737Z,60.42
2023-03-13T00:28:08.388Z,60.40
2023-03-13T00:30:35.952Z,60.22
2023-03-13T00:33:04.274Z,60.30
2023-03-13T00:35:32.011Z,60.28
2023-03-13T00:37:59.626Z,59.96
2023-03-13T00:40:28.543Z,59.58
2023-03-13T00:42:56.081Z,59.85
2023-03-13T00:45:23.676Z,59.87
2023-03-13T00:47:51.231Z,59.83
2023-03-13T00:50:19.151Z,59.80
2023-03-13T00:52:46.666Z,59.29
2023-03-13T00:55:14.218Z,60.09
2023-03-13T00:57:43.116Z,60.18
2023-03-13T01:00:12.256Z,60.27
2023-03-13T01:02:42.874Z,60.42
2023-03-13T01:05:11.439Z,60.26
2023-03-13T01:07:39.004Z,60.41
2023-03-13T01:10:07.993Z,60.93
2023-03-13T01:12:35.799Z,60.57
2023-03-13T01:15:07.471Z,60.36
2023-03-13T01:17:35.019Z,60.64
2023-03-13T01:20:02.604Z,60.60
2023-03-13T01:22:30.248Z,61.02
2023-03-13T01:24:58.578Z,61.27
2023-03-13T01:27:26.417Z,60.95
2023-03-13T01:29:54.097Z,60.96
2023-03-13T01:32:23.280Z,61.12
2023-03-13T01:34:50.856Z,61.13
2023-03-13T01:37:18.735Z,61.12
2023-03-13T01:39:46.256Z,60.99
2023-03-13T01:42:14.483Z,61.06
2023-03-13T01:44:51.774Z,61.32
2023-03-13T01:47:19.484Z,61.50
2023-03-13T01:50:11.584Z,61.59
2023-03-13T01:52:52.207Z,62.10
2023-03-13T01:55:24.358Z,62.21
2023-03-13T01:57:55.257Z,61.77
2023-03-13T02:00:27.952Z,62.17
2023-03-13T02:02:57.851Z,62.63
2023-03-13T02:05:29.934Z,63.34
2023-03-13T02:08:02.836Z,63.24
2023-03-13T02:10:33.026Z,63.82
2023-03-13T02:13:03.518Z,64.38
2023-03-13T02:15:32.264Z,65.27
2023-03-13T02:18:00.126Z,65.94
2023-03-13T02:20:29.109Z,66.60
2023-03-13T02:23:01.828Z,67.20
2023-03-13T02:25:38.326Z,68.68
2023-03-13T02:28:09.592Z,69.25
2023-03-13T02:30:39.550Z,69.62
2023-03-13T02:33:07.247Z,70.07
2023-03-13T02:35:37.657Z,70.30
2023-03-13T02:38:12.873Z,69.93
2023-03-13T02:40:45.479Z,70.81
2023-03-13T02:43:18.031Z,71.10
2023-03-13T02:46:05.501Z,71.84
2023-03-13T02:48:37.415Z,73.19
2023-03-13T02:51:09.717Z,72.80
2023-03-13T02:53:38.742Z,72.91
2023-03-13T02:56:08.514Z,73.07
2023-03-13T02:58:49.761Z,73.49
2023-03-13T03:01:19.701Z,73.46
2023-03-13T03:03:47.474Z,74.25
2023-03-13T03:06:15.161Z,73.63
2023-03-13T03:08:43.894Z,73.77
2023-03-13T03:11:14.414Z,73.38
2023-03-13T03:13:44.275Z,74.26
2023-03-13T03:16:18.533Z,74.12
2023-03-13T03:18:46.160Z,74.58
2023-03-13T03:21:14.479Z,74.55
2023-03-13T03:23:42.110Z,74.32
2023-03-13T03:26:10.998Z,74.40
2023-03-13T03:28:41.214Z,73.84
2023-03-13T03:31:14.804Z,74.27
2023-03-13T03:33:45.199Z,74.53
2023-03-13T03:36:16.618Z,74.44
2023-03-13T03:38:46.032Z,74.73
2023-03-13T03:41:16.477Z,75.33
2023-03-13T03:43:47.262Z,75.56
2023-03-13T03:46:17.898Z,75.95
2023-03-13T03:48:45.724Z,76.73
2023-03-13T03:51:14.124Z,76.95
2023-03-13T03:53:44.326Z,77.12
2023-03-13T03:56:12.115Z,76.95
2023-03-13T03:58:47.668Z,77.11
2023-03-13T04:01:38.463Z,76.49
2023-03-13T04:04:06.978Z,76.42
2023-03-13T04:06:34.764Z,75.91
2023-03-13T04:09:04.754Z,75.92
2023-03-13T04:11:33.354Z,74.75
2023-03-13T04:14:02.325Z,74.29
2023-03-13T04:16:30.795Z,73.96
2023-03-13T04:18:58.439Z,73.36
2023-03-13T04:21:27.417Z,73.32
2023-03-13T04:24:05.304Z,73.30
2023-03-13T04:26:34.832Z,73.68
2023-03-13T04:29:06.195Z,73.48
2023-03-13T04:31:54.212Z,73.18
2023-03-13T04:34:34.330Z,73.26
2023-03-13T04:37:05.024Z,74.14
2023-03-13T04:39:49.744Z,74.06
2023-03-13T04:42:23.358Z,74.03
2023-03-13T04:45:18.684Z,73.93
2023-03-13T04:47:59.350Z,73.87
2023-03-13T04:50:45.595Z,73.92
2023-03-13T04:53:27.968Z,73.49
2023-03-13T04:56:06.089Z,72.54
2023-03-13T04:58:49.329Z,72.44
2023-03-13T05:01:32.768Z,72.49
2023-03-13T05:04:29.585Z,72.21
2023-03-13T05:07:24.195Z,72.66
2023-03-13T05:10:11.758Z,72.82
2023-03-13T05:13:03.306Z,72.90
2023-03-13T05:15:41.212Z,72.77
2023-03-13T05:18:26.567Z,73.38
2023-03-13T05:21:07.955Z,73.39
2023-03-13T05:24:02.419Z,74.43
2023-03-13T05:26:39.099Z,75.39
2023-03-13T05:29:28.665Z,76.47
2023-03-13T05:32:25.523Z,76.47
2023-03-13T05:35:05.889Z,76.62
2023-03-13T05:37:46.543Z,76.52
2023-03-13T05:40:32.652Z,77.07
2023-03-13T05:43:24.686Z,76.61
2023-03-13T05:46:04.484Z,76.18
2023-03-13T05:48:58.113Z,76.06
2023-03-13T05:51:46.709Z,76.67
2023-03-13T05:54:32.992Z,76.24
2023-03-13T05:57:19.720Z,76.37
2023-03-13T05:59:53.429Z,76.24
2023-03-13T06:02:41.083Z,75.91
2023-03-13T06:05:11.846Z,76.09
2023-03-13T06:07:41.129Z,76.02
2023-03-13T06:10:11.826Z,76.28
2023-03-13T06:12:39.867Z,76.26
2023-03-13T06:15:12.345Z,75.94
2023-03-13T06:18:03.086Z,76.33
2023-03-13T06:20:30.758Z,75.93
2023-03-13T06:22:59.617Z,76.04
2023-03-13T06:25:27.211Z,75.76
2023-03-13T06:27:54.764Z,77.07
2023-03-13T06:30:22.554Z,77.22
2023-03-13T06:32:50.991Z,77.71
2023-03-13T06:35:18.751Z,77.87
2023-03-13T06:37:46.365Z,78.63
2023-03-13T06:40:15.413Z,78.23
2023-03-13T06:42:43.054Z,78.91
2023-03-13T06:45:11.604Z,78.74
2023-03-13T06:47:39.312Z,79.03
2023-03-13T06:50:07.726Z,78.84
2023-03-13T06:52:43.447Z,78.90
2023-03-13T06:55:12.894Z,79.07
2023-03-13T06:57:41.999Z,79.19
2023-03-13T07:00:12.320Z,78.96
2023-03-13T07:02:39.882Z,78.60
2023-03-13T07:05:09.179Z,78.29
2023-03-13T07:07:36.822Z,78.65
2023-03-13T07:10:04.901Z,78.18
2023-03-13T07:12:32.450Z,78.32
2023-03-13T07:15:01.343Z,77.97
2023-03-13T07:17:29.027Z,77.95
2023-03-13T07:19:56.678Z,77.78
2023-03-13T07:22:24.288Z,77.68
2023-03-13T07:24:51.898Z,77.46
2023-03-13T07:27:20.909Z,77.10
2023-03-13T07:29:48.435Z,76.91
2023-03-13T07:32:17.558Z,76.48
2023-03-13T07:34:45.480Z,76.28
2023-03-13T07:37:13.222Z,76.28
2023-03-13T07:39:41.059Z,75.74
2023-03-13T07:42:10.689Z,75.88
2023-03-13T07:44:38.289Z,75.38
2023-03-13T07:47:06.790Z,75.17
2023-03-13T07:49:39.291Z,74.88
2023-03-13T07:52:06.909Z,74.65
2023-03-13T07:54:34.731Z,74.53
2023-03-13T07:57:02.596Z,74.18
2023-03-13T07:59:30.721Z,73.89
2023-03-13T08:01:58.367Z,73.51
2023-03-13T08:04:26.009Z,73.10
2023-03-13T08:06:55.332Z,72.76
2023-03-13T08:09:22.913Z,72.14
2023-03-13T08:11:50.409Z,72.12
2023-03-13T08:14:18.001Z,71.66
2023-03-13T08:16:45.653Z,71.29
2023-03-13T08:19:13.309Z,71.12
2023-03-13T08:21:40.863Z,71.04
2023-03-13T08:24:12.893Z,70.97
2023-03-13T08:26:42.335Z,70.42
2023-03-13T08:29:11.936Z,69.82
2023-03-13T08:31:44.614Z,70.20
2023-03-13T08:34:12.990Z,69.39
2023-03-13T08:36:41.459Z,69.70
2023-03-13T08:39:13.286Z,69.57
2023-03-13T08:41:41.576Z,69.70
2023-03-13T08:44:12.108Z,69.92
2023-03-13T08:46:39.887Z,69.65
2023-03-13T08:49:08.827Z,69.95
2023-03-13T08:51:36.797Z,69.45
2023-03-13T08:54:05.285Z,69.65
2023-03-13T08:56:35.018Z,69.53
2023-03-13T08:59:04.560Z,69.45
2023-03-13T09:01:33.924Z,69.23
2023-03-13T09:04:04.213Z,68.99
2023-03-13T09:06:32.207Z,68.48
2023-03-13T09:08:59.799Z,68.35
2023-03-13T09:11:27.931Z,68.23
2023-03-13T09:13:59.174Z,68.13
2023-03-13T09:16:28.904Z,68.18
2023-03-13T09:18:57.439Z,67.79
2023-03-13T09:21:26.871Z,67.12
2023-03-13T09:23:54.469Z,66.99
2023-03-13T09:26:23.605Z,66.63
2023-03-13T09:28:51.589Z,65.34
2023-03-13T09:31:22.597Z,65.26
2023-03-13T09:33:51.219Z,64.70
2023-03-13T09:36:22.084Z,64.48
2023-03-13T09:38:50.506Z,64.87
2023-03-13T09:41:25.009Z,64.58
2023-03-13T09:43:56.402Z,64.23
2023-03-13T09:46:29.248Z,64.07
2023-03-13T09:49:00.864Z,63.32
2023-03-13T09:51:31.658Z,62.89
2023-03-13T09:54:05.348Z,62.58
2023-03-13T09:56:38.147Z,62.11
2023-03-13T09:59:14.433Z,62.22
2023-03-13T10:01:45.226Z,62.05
2023-03-13T10:04:28.777Z,62.31
2023-03-13T10:06:56.461Z,62.45
2023-03-13T10:09:29.775Z,62.79
2023-03-13T10:12:00.536Z,62.34
2023-03-13T10:14:32.115Z,62.35
2023-03-13T10:17:08.669Z,61.67
2023-03-13T10:19:38.648Z,61.00
2023-03-13T10:22:14.224Z,61.55
2023-03-13T10:24:47.739Z,61.33
2023-03-13T10:27:16.859Z,61.17
2023-03-13T10:29:44.498Z,61.05
2023-03-13T10:32:16.289Z,60.14
2023-03-13T10:34:51.324Z,59.77
2023-03-13T10:37:22.936Z,59.96
2023-03-13T10:39:50.585Z,60.15
2023-03-13T10:42:24.752Z,59.68
2023-03-13T10:44:58.938Z,60.00
2023-03-13T10:47:28.532Z,60.16
2023-03-13T10:49:58.286Z,59.97
2023-03-13T10:52:43.555Z,60.17
2023-03-13T10:55:13.056Z,59.93
2023-03-13T10:57:44.269Z,59.68
2023-03-13T11:00:30.311Z,60.10
2023-03-13T11:02:59.473Z,60.12
2023-03-13T11:05:39.095Z,59.72
2023-03-13T11:08:21.812Z,59.58
2023-03-13T11:10:58.625Z,59.38
2023-03-13T11:13:37.508Z,59.16
2023-03-13T11:16:20.434Z,59.11
2023-03-13T11:19:10.856Z,59.06
2023-03-13T11:21:49.443Z,58.04
2023-03-13T11:24:25.966Z,57.90
2023-03-13T11:27:05.277Z,57.63
2023-03-13T11:29:41.176Z,57.01
2023-03-13T11:32:21.024Z,56.88
2023-03-13T11:34:54.102Z,56.33
2023-03-13T11:37:23.424Z,55.55
2023-03-13T11:40:11.264Z,54.07
2023-03-13T11:42:51.945Z,53.26
2023-03-13T11:45:38.231Z,52.63
2023-03-13T11:48:10.726Z,51.99
2023-03-13T11:50:49.350Z,51.43
2023-03-13T11:53:39.157Z,51.49
2023-03-13T11:56:12.622Z,51.57
2023-03-13T11:58:52.105Z,52.07
2023-03-13T12:01:21.610Z,51.92
2023-03-13T12:03:57.583Z,51.96
2023-03-13T12:06:31.873Z,51.89
2023-03-13T12:09:05.818Z,51.40
2023-03-13T12:11:38.036Z,51.78
2023-03-13T12:14:12.659Z,50.74
2023-03-13T12:16:44.625Z,51.02
2023-03-13T12:19:19.064Z,48.67
2023-03-13T12:21:53.118Z,48.70
2023-03-13T12:24:28.507Z,49.06
2023-03-13T12:27:06.707Z,47.49
2023-03-13T12:29:43.883Z,46.11
2023-03-13T12:32:15.670Z,45.71
2023-03-13T12:34:55.330Z,46.18
2023-03-13T12:37:30.765Z,46.15
2023-03-13T12:40:02.190Z,45.79
2023-03-13T12:42:44.184Z,45.67
2023-03-13T12:45:18.456Z,44.86
2023-03-13T12:48:23.320Z,44.47
2023-03-13T12:51:06.011Z,43.84
2023-03-13T12:53:57.771Z,44.46
2023-03-13T12:56:55.555Z,45.35
2023-03-13T12:59:26.078Z,45.09
2023-03-13T13:01:56.043Z,44.01
2023-03-13T13:04:25.845Z,43.97
2023-03-13T13:06:57.586Z,44.05
2023-03-13T13:09:28.372Z,44.26
2023-03-13T13:11:57.714Z,45.33
2023-03-13T13:14:59.779Z,44.99
2023-03-13T13:17:33.080Z,47.10
2023-03-13T13:20:20.496Z,46.98
2023-03-13T13:22:52.733Z,46.19
2023-03-13T13:25:35.092Z,46.24
2023-03-13T13:28:23.882Z,44.97
2023-03-13T13:30:54.603Z,43.85
2023-03-13T13:33:42.044Z,42.94
2023-03-13T13:36:42.516Z,41.00
2023-03-13T13:39:39.834Z,39.47
2023-03-13T13:42:50.129Z,37.40
2023-03-13T13:45:27.703Z,37.71
2023-03-13T13:48:26.464Z,36.34
2023-03-13T13:51:25.057Z,35.25
2023-03-13T13:53:56.005Z,36.43
2023-03-13T13:56:32.154Z,36.75
2023-03-13T13:59:05.735Z,35.72
2023-03-13T14:01:34.564Z,34.64
2023-03-13T14:04:12.403Z,34.68
2023-03-13T14:06:43.872Z,34.62
2023-03-13T14:09:21.729Z,33.81
2023-03-13T14:11:49.361Z,35.31
2023-03-13T14:14:20.270Z,34.67
2023-03-13T14:16:49.995Z,33.50
2023-03-13T14:19:24.410Z,33.10
2023-03-13T14:21:52.101Z,34.06
2023-03-13T14:24:19.724Z,36.59
2023-03-13T14:26:47.267Z,35.54
2023-03-13T14:29:25.721Z,33.15
2023-03-13T14:31:55.217Z,32.76
2023-03-13T14:34:23.610Z,31.16
2023-03-13T14:36:54.401Z,30.57
2023-03-13T14:39:37.871Z,29.59
2023-03-13T14:42:07.608Z,28.31
2023-03-13T14:44:38.889Z,28.20
2023-03-13T14:47:09.060Z,29.09
2023-03-13T14:49:37.869Z,29.96
2023-03-13T14:52:08.720Z,29.37
2023-03-13T14:54:38.105Z,27.82
2023-03-13T14:57:15.992Z,27.83
2023-03-13T14:59:45.237Z,27.81
2023-03-13T15:02:21.127Z,28.80
2023-03-13T15:04:50.126Z,27.99
2023-03-13T15:07:18.341Z,27.86
2023-03-13T15:09:47.026Z,28.75
2023-03-13T15:12:16.833Z,29.21
2023-03-13T15:14:47.206Z,32.98
2023-03-13T15:17:18.530Z,32.32
2023-03-13T15:19:51.113Z,30.27
2023-03-13T15:22:21.057Z,29.04
2023-03-13T15:25:04.933Z,29.97
2023-03-13T15:27:33.968Z,30.97
2023-03-13T15:30:02.858Z,29.78
2023-03-13T15:32:34.052Z,30.23
2023-03-13T15:35:03.254Z,29.33
2023-03-13T15:37:31.552Z,29.26
2023-03-13T15:39:59.296Z,29.27
2023-03-13T15:42:27.009Z,28.24
2023-03-13T15:44:54.554Z,28.62
2023-03-13T15:47:23.562Z,28.80
2023-03-13T15:49:51.268Z,28.37
2023-03-13T15:52:22.401Z,27.87
2023-03-13T15:54:51.543Z,28.39
2023-03-13T15:57:23.101Z,26.64
2023-03-13T15:59:51.244Z,28.12
2023-03-13T16:02:20.617Z,29.93
2023-03-13T16:04:49.959Z,31.05
2023-03-13T16:07:19.761Z,31.96
2023-03-13T16:09:47.840Z,32.96
2023-03-13T16:12:15.483Z,34.17
2023-03-13T16:14:43.151Z,34.68
2023-03-13T16:17:14.656Z,34.73
2023-03-13T16:19:42.244Z,36.40
2023-03-13T16:22:11.449Z,37.60
2023-03-13T16:24:39.123Z,38.84
2023-03-13T16:27:13.804Z,38.33
2023-03-13T16:29:41.561Z,39.64
2023-03-13T16:32:12.809Z,39.93
2023-03-13T16:34:40.540Z,41.00
2023-03-13T16:37:14.342Z,41.26
2023-03-13T16:39:42.038Z,42.11
2023-03-13T16:42:09.857Z,41.84
2023-03-13T16:44:37.599Z,42.81
2023-03-13T16:47:16.423Z,43.48
2023-03-13T16:49:46.328Z,43.11
2023-03-13T16:52:17.571Z,44.45
2023-03-13T16:54:46.068Z,44.28
2023-03-13T16:57:24.222Z,44.79
2023-03-13T16:59:51.933Z,45.17
2023-03-13T17:02:21.282Z,46.29
2023-03-13T17:04:50.012Z,47.21
2023-03-13T17:07:21.006Z,47.55
2023-03-13T17:09:48.738Z,49.15
2023-03-13T17:12:16.629Z,48.17
2023-03-13T17:14:44.367Z,49.22
2023-03-13T17:17:14.172Z,49.66
2023-03-13T17:19:41.770Z,50.13
2023-03-13T17:22:12.588Z,50.90
2023-03-13T17:24:42.019Z,51.49
2023-03-13T17:27:13.138Z,52.24
2023-03-13T17:29:40.845Z,53.86
2023-03-13T17:32:10.288Z,55.48
2023-03-13T17:34:37.954Z,57.43
2023-03-13T17:37:15.225Z,58.82
2023-03-13T17:39:44.651Z,60.76
2023-03-13T17:42:12.531Z,61.73
2023-03-13T17:44:41.156Z,62.84
2023-03-13T17:47:13.545Z,63.71
2023-03-13T17:49:41.179Z,65.39
2023-03-13T17:52:13.879Z,66.80
2023-03-13T17:54:41.645Z,69.12
2023-03-13T17:57:15.762Z,72.27
2023-03-13T17:59:43.928Z,78.09
2023-03-13T18:02:13.293Z,80.41
2023-03-13T18:04:41.457Z,80.05
2023-03-13T18:07:17.394Z,82.02
2023-03-13T18:09:47.441Z,83.66
2023-03-13T18:12:17.059Z,84.30
2023-03-13T18:14:45.126Z,85.42
2023-03-13T18:17:17.836Z,86.93
2023-03-13T18:19:45.692Z,87.45
2023-03-13T18:22:15.388Z,88.49
2023-03-13T18:24:42.968Z,90.12
2023-03-13T18:27:15.424Z,91.34
2023-03-13T18:29:44.903Z,91.60
2023-03-13T18:32:14.586Z,91.42
2023-03-13T18:34:42.397Z,92.18
2023-03-13T18:37:20.672Z,91.88
2023-03-13T18:39:49.775Z,92.37
2023-03-13T18:42:17.438Z,92.67
2023-03-13T18:44:46.338Z,92.90
2023-03-13T18:47:16.021Z,92.27
2023-03-13T18:49:43.810Z,92.41
2023-03-13T18:52:12.191Z,93.18
2023-03-13T18:54:40.058Z,93.64
2023-03-13T18:57:13.313Z,93.98
2023-03-13T18:59:41.041Z,94.61
2023-03-13T19:02:13.922Z,93.95
2023-03-13T19:04:41.536Z,93.64
2023-03-13T19:07:14.716Z,93.90
2023-03-13T19:09:44.092Z,95.96
2023-03-13T19:12:13.112Z,96.64
2023-03-13T19:14:40.665Z,96.24
2023-03-13T19:17:16.768Z,94.87
2023-03-13T19:19:44.343Z,94.70
2023-03-13T19:22:13.889Z,94.50
2023-03-13T19:24:41.469Z,96.04
2023-03-13T19:27:13.460Z,97.35
2023-03-13T19:29:41.147Z,98.23
2023-03-13T19:32:14.515Z,98.87
2023-03-13T19:34:41.973Z,98.56
2023-03-13T19:37:11.497Z,95.46
2023-03-13T19:39:39.084Z,97.56
2023-03-13T19:42:07.710Z,99.90
2023-03-13T19:44:36.061Z,100.00
2023-03-13T19:47:05.163Z,100.00
2023-03-13T19:49:34.509Z,100.00
2023-03-13T19:52:02.317Z,100.00
2023-03-13T19:54:29.961Z,100.00
2023-03-13T19:56:57.576Z,100.00
2023-03-13T19:59:26.841Z,100.00
2023-03-13T20:01:55.696Z,100.00
2023-03-13T20:04:24.933Z,100.00
2023-03-13T20:06:53.823Z,100.00
2023-03-13T20:09:21.485Z,100.00
2023-03-13T20:11:49.078Z,100.00
2023-03-13T20:14:16.788Z,100.00
2023-03-13T20:16:46.428Z,100.00
2023-03-13T20:19:13.948Z,100.00
2023-03-13T20:21:42.723Z,100.00
2023-03-13T20:24:11.659Z,100.00
2023-03-13T20:26:39.514Z,100.00
2023-03-13T20:29:07.174Z,100.00
2023-03-13T20:31:34.762Z,100.00
2023-03-13T20:34:02.473Z,100.00
2023-03-13T20:36:30.313Z,100.00
2023-03-13T20:38:57.931Z,100.00
2023-03-13T20:41:31.058Z,100.00
2023-03-13T20:43:58.703Z,100.00
2023-03-13T20:46:26.654Z,100.00
2023-03-13T20:48:54.230Z,100.00
2023-03-13T20:51:21.861Z,100.00
2023-03-13T20:53:49.471Z,100.00
2023-03-13T20:56:16.971Z,100.00
2023-03-13T20:58:45.891Z,100.00
2023-03-13T21:01:13.532Z,100.00
2023-03-13T21:03:41.188Z,100.00
2023-03-13T21:06:13.404Z,100.00
2023-03-13T21:08:41.167Z,100.00
2023-03-13T21:11:16.816Z,100.00
2023-03-13T21:13:45.980Z,100.00
2023-03-13T21:16:16.628Z,100.00
2023-03-13T21:18:44.334Z,100.00
2023-03-13T21:21:14.930Z,100.00
2023-03-13T21:23:42.615Z,100.00
2023-03-13T21:26:10.398Z,100.00
2023-03-13T21:28:39.244Z,100.00
2023-03-13T21:31:13.853Z,100.00
2023-03-13T21:33:42.096Z,100.00
2023-03-13T21:36:11.070Z,100.00
2023-03-13T21:38:39.256Z,100.00
2023-03-13T21:41:10.689Z,100.00
2023-03-13T21:43:41.343Z,100.00
2023-03-13T21:46:09.108Z,100.00
2023-03-13T21:48:38.779Z,100.00
2023-03-13T21:51:07.583Z,100.00
2023-03-13T21:53:35.285Z,100.00
2023-03-13T21:56:03.455Z,100.00
2023-03-13T21:58:31.261Z,100.00
2023-03-13T22:00:59.442Z,100.00
2023-03-13T22:03:27.363Z,100.00
2023-03-13T22:05:56.264Z,100.00
2023-03-13T22:08:23.842Z,100.00
2023-03-13T22:10:54.729Z,100.00
2023-03-13T22:13:22.803Z,100.00
2023-03-13T22:15:50.482Z,100.00
2023-03-13T22:18:18.724Z,100.00
2023-03-13T22:20:46.276Z,100.00
2023-03-13T22:23:15.239Z,100.00
2023-03-13T22:25:44.117Z,100.00
2023-03-13T22:28:12.672Z,100.00
2023-03-13T22:30:40.748Z,100.00
2023-03-13T22:33:08.780Z,100.00
2023-03-13T22:35:38.239Z,100.00
2023-03-13T22:38:06.389Z,100.00
2023-03-13T22:40:35.647Z,100.00
2023-03-13T22:43:03.284Z,100.00
2023-03-13T22:45:32.090Z,100.00
2023-03-13T22:48:05.857Z,100.00
2023-03-13T22:50:33.495Z,97.63
2023-03-13T22:53:01.072Z,97.04
2023-03-13T22:55:28.916Z,95.48
2023-03-13T22:57:57.767Z,95.65
2023-03-13T23:00:25.640Z,95.49
2023-03-13T23:02:54.578Z,93.87
2023-03-13T23:05:22.219Z,93.11
2023-03-13T23:07:50.847Z,91.11
2023-03-13T23:10:19.452Z,92.05
2023-03-13T23:12:46.962Z,90.83
2023-03-13T23:15:15.831Z,91.19
2023-03-13T23:17:43.354Z,89.93
2023-03-13T23:20:13.541Z,88.09
2023-03-13T23:22:42.351Z,88.56
2023-03-13T23:25:11.950Z,87.36
2023-03-13T23:27:39.986Z,86.57
2023-03-13T23:30:10.766Z,84.19
2023-03-13T23:32:42.194Z,81.97
2023-03-13T23:35:10.970Z,80.88
2023-03-13T23:37:38.825Z,81.56
2023-03-13T23:40:09.033Z,82.50
2023-03-13T23:42:36.962Z,79.87
2023-03-13T23:45:07.568Z,79.65
2023-03-13T23:47:35.179Z,80.00
2023-03-13T23:50:05.252Z,80.29
2023-03-13T23:52:34.857Z,79.10
2023-03-13T23:55:02.551Z,80.31
2023-03-13T23:57:30.154Z,78.25
2023-03-13T23:59:57.737Z,77.49
